Marion C. Bouchard — WQZ5582 — position and weather

sailwx.info

Track history (hours):
 
Tides and Currents Weather Stations Pressure Air Temp Water Temp Dewpoint Dewpoint Depression Visibility Wind Speed Wind Dir Waves Ship Positions

Marion C. Bouchard

Owner: BOUCHARD TRANSPORTATION CO INC, Melville, NY. More information available from US FCC via Universal Licensing System and Coast Guard Vessel Documentation Center.

Last reported at 2017-Dec-16 08:28 UTC. Time now 2017-Dec-16 08:58 UTC.
Position N 29°44' W 095°14'.

Length 179 m; draft 7 m.

Type: Towing. MMSI: 357540707.

Date/timePositionNaut miles runAvg speedWind from/ knotsBaromVisibWave heightAir tempDewpointWater temp
2017-Dec-16 08:28N 29°44' W 095°14'0 0.0
2017-Dec-16 07:58N 29°44' W 095°14'0 0.0
2017-Dec-16 07:28N 29°44' W 095°14'0 0.0
2017-Dec-16 06:55N 29°44' W 095°14'0 0.0
2017-Dec-16 06:24N 29°44' W 095°14'0 0.0
2017-Dec-16 06:00N 29°44' W 095°14'0 0.0
2017-Dec-16 05:27N 29°44' W 095°14'0 0.0
2017-Dec-16 04:57N 29°44' W 095°14'0 0.0
2017-Dec-16 04:24N 29°44' W 095°14'0 0.0
2017-Dec-16 04:00N 29°44' W 095°14'0 0.0
2017-Dec-16 03:30N 29°44' W 095°14'0 0.0
2017-Dec-16 02:54N 29°44' W 095°14'0 0.0
2017-Dec-16 02:24N 29°44' W 095°14'0 0.0
2017-Dec-16 01:45N 29°44' W 095°14'0 0.0
2017-Dec-16 01:30N 29°44' W 095°14'0 0.0
2017-Dec-16 01:00N 29°44' W 095°14'0 0.0
2017-Dec-16 00:21N 29°44' W 095°14'0 0.0
2017-Dec-15 23:54N 29°44' W 095°14'0 0.0
2017-Dec-15 23:30N 29°44' W 095°14'0 0.0
2017-Dec-15 23:00N 29°44' W 095°14'0 0.0
2017-Dec-15 22:30N 29°44' W 095°14'0 0.0
2017-Dec-15 21:54N 29°44' W 095°14'0 0.0
2017-Dec-15 21:27N 29°44' W 095°14'0 0.0
2017-Dec-15 20:57N 29°44' W 095°14'0 0.0
2017-Dec-15 20:21N 29°44' W 095°14'0 0.0
2017-Dec-15 20:00N 29°44' W 095°14'0 0.0
2017-Dec-15 19:28N 29°44' W 095°14'0 0.0
2017-Dec-15 18:58N 29°44' W 095°14'0 0.0
2017-Dec-15 18:04N 29°44' W 095°14'0 0.0
2017-Dec-15 17:55N 29°44' W 095°14'0 0.0
2017-Dec-15 16:52N 29°44' W 095°14'0 0.0
2017-Dec-15 16:28N 29°44' W 095°14'0 0.0
2017-Dec-15 15:52N 29°44' W 095°14'0 0.0
2017-Dec-15 15:28N 29°44' W 095°14'0 0.0
2017-Dec-15 14:58N 29°44' W 095°14'0 0.0
2017-Dec-15 14:22N 29°44' W 095°14'0 0.0
2017-Dec-15 13:58N 29°44' W 095°14'0 0.0
2017-Dec-15 13:28N 29°44' W 095°14'0 0.0
2017-Dec-15 12:55N 29°44' W 095°14'0 0.0
2017-Dec-15 12:28N 29°44' W 095°14'0 0.0
2017-Dec-15 11:52N 29°44' W 095°14'0 0.0
2017-Dec-15 11:27N 29°44' W 095°14'0 0.0
2017-Dec-15 10:57N 29°44' W 095°14'0 0.0
2017-Dec-15 10:27N 29°44' W 095°14'0 0.0
2017-Dec-15 09:48N 29°44' W 095°14'0 0.0
2017-Dec-15 09:30N 29°44' W 095°14'0 0.0
2017-Dec-15 09:00N 29°44' W 095°14'0 0.0
2017-Dec-15 08:30N 29°44' W 095°14'0 0.0
2017-Dec-15 07:57N 29°44' W 095°14'0 0.0
2017-Dec-15 07:30N 29°44' W 095°14'0 0.0
2017-Dec-15 07:00N 29°44' W 095°14'0 0.0
2017-Dec-15 06:30N 29°44' W 095°14'0 0.0
2017-Dec-15 06:00N 29°44' W 095°14'0 0.0
2017-Dec-15 05:23N 29°44' W 095°14'0 0.0
2017-Dec-15 04:56N 29°44' W 095°14'0 0.0
2017-Dec-15 04:30N 29°44' W 095°14'1 2.8
2017-Dec-15 04:00N 29°44' W 095°12'9 5.8
2017-Dec-15 02:28N 29°44' W 095°02'12 8.3
2017-Dec-15 01:00N 29°33' W 094°55'5 9.7
2017-Dec-15 00:30N 29°29' W 094°52'167 3.5
2017-Dec-13 00:36N 27°49' W 097°24'0 0.0
2017-Dec-13 00:28N 27°49' W 097°24'0 0.0
2017-Dec-12 23:59N 27°49' W 097°24'0 0.0
2017-Dec-12 23:30N 27°49' W 097°24'2 0.2
2017-Dec-12 15:30N 27°49' W 097°26'0 0.0
2017-Dec-12 14:59N 27°49' W 097°26'0 0.0
2017-Dec-12 14:30N 27°49' W 097°26'2 3.2
2017-Dec-12 13:59N 27°49' W 097°25'0 0.0
2017-Dec-12 13:30N 27°49' W 097°25'0 0.0
2017-Dec-12 13:00N 27°49' W 097°25'0 0.0
2017-Dec-12 12:29N 27°49' W 097°25'0 0.0
2017-Dec-12 11:59N 27°49' W 097°25'0 0.0
2017-Dec-12 11:30N 27°49' W 097°25'0 0.0
2017-Dec-12 11:00N 27°49' W 097°25'0 0.0
2017-Dec-12 10:30N 27°49' W 097°25'0 0.0
2017-Dec-12 09:59N 27°49' W 097°25'0 0.0
2017-Dec-12 08:36N 27°49' W 097°25'0 0.0
2017-Dec-12 08:30N 27°49' W 097°25'0 0.0
2017-Dec-12 08:00N 27°49' W 097°25'0 0.0
2017-Dec-12 07:30N 27°49' W 097°25'0 0.0
2017-Dec-12 06:59N 27°49' W 097°25'0 0.0
2017-Dec-12 06:30N 27°49' W 097°25'0 0.0
2017-Dec-12 06:00N 27°49' W 097°25'0 0.0
2017-Dec-12 05:30N 27°49' W 097°25'0 0.0
2017-Dec-12 04:59N 27°49' W 097°25'0 0.0
2017-Dec-12 04:30N 27°49' W 097°25'0 0.0
2017-Dec-12 03:59N 27°49' W 097°25'0 0.0
2017-Dec-12 03:29N 27°49' W 097°25'0 0.1
2017-Dec-12 03:00N 27°49' W 097°24'3 4.8
2017-Dec-12 02:29N 27°49' W 097°22'5 9.9
2017-Dec-12 01:59N 27°49' W 097°16'5 9.5
2017-Dec-12 01:30N 27°49' W 097°11'5 9.4
2017-Dec-12 00:59N 27°50' W 097°06'4 8.5
2017-Dec-12 00:30N 27°49' W 097°01'2 4.6
2017-Dec-11 23:59N 27°49' W 096°58'0 0.7
2017-Dec-11 23:30N 27°49' W 096°58'0 0.4
2017-Dec-11 22:59N 27°49' W 096°58'1 2.0
2017-Dec-11 22:29N 27°50' W 096°59'0 0.4
2017-Dec-11 21:59N 27°50' W 096°59'0 0.0
2017-Dec-11 21:30N 27°50' W 096°59'0 0.0
2017-Dec-11 21:00N 27°50' W 096°59'0 0.0
2017-Dec-11 20:29N 27°50' W 096°59'0 0.0
2017-Dec-11 20:00N 27°50' W 096°59'  
Track history (hours):
 
Tides and Currents Weather Stations Pressure Air Temp Water Temp Dewpoint Dewpoint Depression Visibility Wind Speed Wind Dir Waves Ship Positions

Marion C. Bouchard

Owner: BOUCHARD TRANSPORTATION CO INC, Melville, NY. More information available from US FCC via Universal Licensing System and Coast Guard Vessel Documentation Center.

Last reported at 2017-Dec-16 08:28 UTC. Time now 2017-Dec-16 08:58 UTC.
Position N 29°44' W 095°14'.

Length 179 m; draft 7 m.

Type: Towing. MMSI: 357540707.

Date/timePositionNaut miles runAvg speedWind from/ knotsBaromVisibWave heightAir tempDewpointWater temp
2017-Dec-16 08:28N 29°44' W 095°14'0 0.0
2017-Dec-16 07:58N 29°44' W 095°14'0 0.0
2017-Dec-16 07:28N 29°44' W 095°14'0 0.0
2017-Dec-16 06:55N 29°44' W 095°14'0 0.0
2017-Dec-16 06:24N 29°44' W 095°14'0 0.0
2017-Dec-16 06:00N 29°44' W 095°14'0 0.0
2017-Dec-16 05:27N 29°44' W 095°14'0 0.0
2017-Dec-16 04:57N 29°44' W 095°14'0 0.0
2017-Dec-16 04:24N 29°44' W 095°14'0 0.0
2017-Dec-16 04:00N 29°44' W 095°14'0 0.0
2017-Dec-16 03:30N 29°44' W 095°14'0 0.0
2017-Dec-16 02:54N 29°44' W 095°14'0 0.0
2017-Dec-16 02:24N 29°44' W 095°14'0 0.0
2017-Dec-16 01:45N 29°44' W 095°14'0 0.0
2017-Dec-16 01:30N 29°44' W 095°14'0 0.0
2017-Dec-16 01:00N 29°44' W 095°14'0 0.0
2017-Dec-16 00:21N 29°44' W 095°14'0 0.0
2017-Dec-15 23:54N 29°44' W 095°14'0 0.0
2017-Dec-15 23:30N 29°44' W 095°14'0 0.0
2017-Dec-15 23:00N 29°44' W 095°14'0 0.0
2017-Dec-15 22:30N 29°44' W 095°14'0 0.0
2017-Dec-15 21:54N 29°44' W 095°14'0 0.0
2017-Dec-15 21:27N 29°44' W 095°14'0 0.0
2017-Dec-15 20:57N 29°44' W 095°14'0 0.0
2017-Dec-15 20:21N 29°44' W 095°14'0 0.0
2017-Dec-15 20:00N 29°44' W 095°14'0 0.0
2017-Dec-15 19:28N 29°44' W 095°14'0 0.0
2017-Dec-15 18:58N 29°44' W 095°14'0 0.0
2017-Dec-15 18:04N 29°44' W 095°14'0 0.0
2017-Dec-15 17:55N 29°44' W 095°14'0 0.0
2017-Dec-15 16:52N 29°44' W 095°14'0 0.0
2017-Dec-15 16:28N 29°44' W 095°14'0 0.0
2017-Dec-15 15:52N 29°44' W 095°14'0 0.0
2017-Dec-15 15:28N 29°44' W 095°14'0 0.0
2017-Dec-15 14:58N 29°44' W 095°14'0 0.0
2017-Dec-15 14:22N 29°44' W 095°14'0 0.0
2017-Dec-15 13:58N 29°44' W 095°14'0 0.0
2017-Dec-15 13:28N 29°44' W 095°14'0 0.0
2017-Dec-15 12:55N 29°44' W 095°14'0 0.0
2017-Dec-15 12:28N 29°44' W 095°14'0 0.0
2017-Dec-15 11:52N 29°44' W 095°14'0 0.0
2017-Dec-15 11:27N 29°44' W 095°14'0 0.0
2017-Dec-15 10:57N 29°44' W 095°14'0 0.0
2017-Dec-15 10:27N 29°44' W 095°14'0 0.0
2017-Dec-15 09:48N 29°44' W 095°14'0 0.0
2017-Dec-15 09:30N 29°44' W 095°14'0 0.0
2017-Dec-15 09:00N 29°44' W 095°14'0 0.0
2017-Dec-15 08:30N 29°44' W 095°14'0 0.0
2017-Dec-15 07:57N 29°44' W 095°14'0 0.0
2017-Dec-15 07:30N 29°44' W 095°14'0 0.0
2017-Dec-15 07:00N 29°44' W 095°14'0 0.0
2017-Dec-15 06:30N 29°44' W 095°14'0 0.0
2017-Dec-15 06:00N 29°44' W 095°14'0 0.0
2017-Dec-15 05:23N 29°44' W 095°14'0 0.0
2017-Dec-15 04:56N 29°44' W 095°14'0 0.0
2017-Dec-15 04:30N 29°44' W 095°14'1 2.8
2017-Dec-15 04:00N 29°44' W 095°12'9 5.8
2017-Dec-15 02:28N 29°44' W 095°02'12 8.3
2017-Dec-15 01:00N 29°33' W 094°55'5 9.7
2017-Dec-15 00:30N 29°29' W 094°52'167 3.5
2017-Dec-13 00:36N 27°49' W 097°24'0 0.0
2017-Dec-13 00:28N 27°49' W 097°24'0 0.0
2017-Dec-12 23:59N 27°49' W 097°24'0 0.0
2017-Dec-12 23:30N 27°49' W 097°24'2 0.2
2017-Dec-12 15:30N 27°49' W 097°26'0 0.0
2017-Dec-12 14:59N 27°49' W 097°26'0 0.0
2017-Dec-12 14:30N 27°49' W 097°26'2 3.2
2017-Dec-12 13:59N 27°49' W 097°25'0 0.0
2017-Dec-12 13:30N 27°49' W 097°25'0 0.0
2017-Dec-12 13:00N 27°49' W 097°25'0 0.0
2017-Dec-12 12:29N 27°49' W 097°25'0 0.0
2017-Dec-12 11:59N 27°49' W 097°25'0 0.0
2017-Dec-12 11:30N 27°49' W 097°25'0 0.0
2017-Dec-12 11:00N 27°49' W 097°25'0 0.0
2017-Dec-12 10:30N 27°49' W 097°25'0 0.0
2017-Dec-12 09:59N 27°49' W 097°25'0 0.0
2017-Dec-12 08:36N 27°49' W 097°25'0 0.0
2017-Dec-12 08:30N 27°49' W 097°25'0 0.0
2017-Dec-12 08:00N 27°49' W 097°25'0 0.0
2017-Dec-12 07:30N 27°49' W 097°25'0 0.0
2017-Dec-12 06:59N 27°49' W 097°25'0 0.0
2017-Dec-12 06:30N 27°49' W 097°25'0 0.0
2017-Dec-12 06:00N 27°49' W 097°25'0 0.0
2017-Dec-12 05:30N 27°49' W 097°25'0 0.0
2017-Dec-12 04:59N 27°49' W 097°25'0 0.0
2017-Dec-12 04:30N 27°49' W 097°25'0 0.0
2017-Dec-12 03:59N 27°49' W 097°25'0 0.0
2017-Dec-12 03:29N 27°49' W 097°25'0 0.1
2017-Dec-12 03:00N 27°49' W 097°24'3 4.8
2017-Dec-12 02:29N 27°49' W 097°22'5 9.9
2017-Dec-12 01:59N 27°49' W 097°16'5 9.5
2017-Dec-12 01:30N 27°49' W 097°11'5 9.4
2017-Dec-12 00:59N 27°50' W 097°06'4 8.5
2017-Dec-12 00:30N 27°49' W 097°01'2 4.6
2017-Dec-11 23:59N 27°49' W 096°58'0 0.7
2017-Dec-11 23:30N 27°49' W 096°58'0 0.4
2017-Dec-11 22:59N 27°49' W 096°58'1 2.0
2017-Dec-11 22:29N 27°50' W 096°59'0 0.4
2017-Dec-11 21:59N 27°50' W 096°59'0 0.0
2017-Dec-11 21:30N 27°50' W 096°59'0 0.0
2017-Dec-11 21:00N 27°50' W 096°59'0 0.0
2017-Dec-11 20:29N 27°50' W 096°59'0 0.0
2017-Dec-11 20:00N 27°50' W 096°59'  

Dump ship's entire track history